Latest Weather Observations for Troughton Island

IDD60801

Issued at 8:41 pm CST Tuesday 4 August 2020 (issued every 10 minutes, with the page automatically refreshed every 10 minutes)

About weather observations | Map of weather stations | Latest weather observations for NT | Other Formats
Station Details ID: 001007 Name: TROUGHTON ISLAND Lat: -13.75 Lon: 126.15 Height: 6.0 m
Data from the previous 72 hours. | See also: Recent months at Troughton Island
Date/Time
CST
Temp
°C
App
Temp
°C
Dew
Point
°C
Rel
Hum
%
Delta-T
°C
Wind Press
QNH
hPa
Press
MSL
hPa
Rain since
9am
mm
Dir  Spd
km/h
Gust
km/h
Spd
kts
Gust
kts
04/08:30pm 23.5 24.3 20.6 84 1.9 NNW 17 20 9 11 1012.1 1012.0 0.0
04/08:00pm 23.7 24.5 20.6 83 2.0 NNW 17 20 9 11 1011.7 1011.6 0.0
04/07:30pm 23.8 24.3 20.1 80 2.4 NNW 17 20 9 11 1011.3 1011.2 0.0
04/07:00pm 24.3 25.4 20.4 79 2.5 NNW 15 19 8 10 1011.1 1011.0 0.0
04/06:30pm 25.1 26.3 19.9 73 3.4 NW 13 17 7 9 1010.9 1010.8 0.0
04/06:00pm 25.8 26.9 20.4 72 3.5 NW 15 15 8 8 1010.7 1010.6 0.0
04/05:30pm 25.9 27.4 20.5 72 3.5 NW 13 15 7 8 1010.5 1010.4 0.0
04/05:00pm 26.2 27.7 20.5 71 3.7 NW 13 15 7 8 1010.1 1010.0 0.0
04/04:30pm 25.8 27.6 20.4 72 3.5 W 11 15 6 8 1010.1 1010.0 0.0
04/04:00pm 26.0 27.2 20.6 72 3.5 WNW 15 17 8 9 1010.4 1010.3 0.0
04/03:30pm 26.4 27.6 20.7 71 3.8 WNW 15 17 8 9 1010.7 1010.6 0.0
04/03:00pm 26.4 27.6 20.7 71 3.7 NW 15 19 8 10 1011.0 1010.9 0.0
04/02:30pm 26.1 27.5 20.4 71 3.7 NW 13 17 7 9 1011.4 1011.3 0.0
04/02:00pm 26.0 27.3 20.1 70 3.8 W 13 15 7 8 1011.9 1011.8 0.0
04/01:30pm 25.7 27.7 20.7 74 3.3 NNE 11 17 6 9 1012.3 1012.2 0.0
04/01:00pm 25.8 27.1 20.1 71 3.7 N 13 17 7 9 1012.7 1012.6 0.0
04/12:30pm 25.7 27.6 19.8 70 3.8 NE 9 13 5 7 1013.0 1012.9 0.0
04/12:00pm 25.5 26.9 19.6 70 3.8 E 11 15 6 8 1013.2 1013.1 0.0
04/11:30am 25.7 28.1 19.6 69 3.9 SE 6 9 3 5 1013.3 1013.2 0.0
04/11:00am 25.5 27.2 18.4 65 4.5 SW 7 11 4 6 1013.3 1013.2 0.0
04/10:30am 25.0 27.2 20.3 75 3.1 ESE 9 13 5 7 1013.5 1013.4 0.0
04/10:00am 25.0 27.2 20.3 75 3.1 ESE 9 13 5 7 1013.4 1013.3 0.0
04/09:30am 24.6 26.9 19.9 75 3.0 SE 7 9 4 5 1013.3 1013.2 0.0
04/09:00am 23.8 26.2 20.1 80 2.4 SSE 7 11 4 6 1013.0 1012.9 0.0
04/08:30am 22.8 25.0 20.3 86 1.6 SSE 9 11 5 6 1012.7 1012.6 0.0
04/08:00am 22.0 24.4 20.8 93 0.8 S 9 11 5 6 1012.5 1012.4 0.0
04/07:30am 21.8 23.6 20.4 92 0.9 SSW 11 15 6 8 1012.1 1012.0 0.0
04/07:00am 22.0 23.6 20.8 93 0.8 SSW 13 15 7 8 1011.9 1011.8 0.0
04/06:30am 22.1 23.7 20.7 92 0.9 SSW 13 17 7 9 1011.8 1011.7 0.0
04/06:00am 22.1 24.2 20.9 93 0.8 SSW 11 13 6 7 1011.7 1011.6 0.0
04/05:30am 22.1 24.1 20.7 92 0.9 SW 11 13 6 7 1011.7 1011.6 0.0
04/05:00am 22.3 24.7 20.9 92 0.9 SSW 9 11 5 6 1011.6 1011.5 0.0
04/04:30am 22.4 24.9 21.0 92 0.9 SSW 9 13 5 7 1011.7 1011.6 0.0
04/04:00am 21.8 24.1 19.9 89 1.2 SSW 7 11 4 6 1011.8 1011.7 0.0
04/03:30am 21.7 24.9 19.8 89 1.2 SSW 2 7 1 4 1012.2 1012.1 0.0
04/03:00am 21.6 24.9 19.2 86 1.5 CALM 0 0 0 0 1012.3 1012.2 0.0
04/02:30am 22.2 25.8 19.7 86 1.6 CALM 0 0 0 0 1012.6 1012.5 0.0
04/02:00am 22.4 24.9 19.8 85 1.7 ENE 6 7 3 4 1012.6 1012.5 0.0
04/01:30am 22.5 25.0 20.2 87 1.5 ENE 7 9 4 5 1012.9 1012.8 0.0
04/01:00am 22.2 25.7 19.6 85 1.7 CALM 0 0 0 0 1013.1 1013.0 0.0
04/12:30am 22.7 26.4 20.0 85 1.7 CALM 0 0 0 0 1013.1 1013.0 0.0
04/12:00am 23.1 25.8 20.2 84 1.9 NNE 6 7 3 4 1013.1 1013.0 0.0
 
Date/Time
CST
Temp
°C
App
Temp
°C
Dew
Point
°C
Rel
Hum
%
Delta-T
°C
Wind Press
QNH
hPa
Press
MSL
hPa
Rain since
9am
mm
Dir  Spd
km/h
Gust
km/h
Spd
kts
Gust
kts
03/11:30pm 23.2 25.9 20.2 83 1.9 NNE 6 9 3 5 1013.1 1013.0 0.0
03/11:00pm 23.2 25.7 20.2 83 1.9 NNE 7 7 4 4 1013.0 1012.9 0.0
03/10:30pm 23.3 25.0 20.2 83 2.0 NNE 11 13 6 7 1013.0 1012.9 0.0
03/10:00pm 23.2 25.4 20.5 85 1.8 NNE 9 13 5 7 1012.9 1012.8 0.0
03/09:30pm 23.4 24.9 20.5 84 1.9 NNE 13 17 7 9 1012.7 1012.6 0.0
03/09:00pm 23.5 25.0 20.6 84 1.9 NNE 13 17 7 9 1012.5 1012.4 0.0
03/08:30pm 23.4 25.0 20.7 85 1.8 NNE 13 19 7 10 1012.2 1012.1 0.0
03/08:00pm 23.6 24.8 19.9 80 2.4 N 13 15 7 8 1011.9 1011.8 0.0
03/07:30pm 23.7 24.9 20.0 80 2.4 N 13 15 7 8 1011.6 1011.5 0.0
03/07:00pm 23.9 25.0 20.4 81 2.3 NNW 15 19 8 10 1011.3 1011.2 0.0
03/06:30pm 24.7 25.0 20.4 77 2.8 N 19 20 10 11 1011.0 1010.9 0.0
03/06:00pm 25.1 25.2 19.9 73 3.4 N 19 20 10 11 1010.7 1010.6 0.0
03/05:30pm 25.9 26.1 20.2 71 3.7 N 19 22 10 12 1010.7 1010.6 0.0
03/05:00pm 26.0 26.9 20.1 70 3.8 NNW 15 17 8 9 1010.7 1010.6 0.0
03/04:30pm 25.6 27.4 20.4 73 3.4 NW 11 15 6 8 1010.9 1010.8 0.0
03/04:00pm 25.5 27.3 20.3 73 3.4 NW 11 15 6 8 1010.9 1010.8 0.0
03/03:30pm 25.8 27.1 19.2 67 4.2 N 11 15 6 8 1011.2 1011.1 0.0
03/03:00pm 26.4 27.3 17.5 58 5.6 NE 9 13 5 7 1011.6 1011.5 0.0
03/02:30pm 25.9 27.9 20.0 70 3.8 NE 9 13 5 7 1012.2 1012.1 0.0
03/02:00pm 25.6 27.5 20.6 74 3.3 E 11 13 6 7 1012.4 1012.3 0.0
03/01:30pm 25.1 27.0 19.7 72 3.5 ENE 9 13 5 7 1012.7 1012.6 0.0
03/01:00pm 25.7 28.2 20.3 72 3.5 E 7 11 4 6 1013.1 1013.0 0.0
03/12:30pm 25.5 27.9 20.1 72 3.5 ESE 7 9 4 5 1013.5 1013.4 0.0
03/12:00pm 25.4 28.3 20.6 75 3.1 S 6 11 3 6 1014.0 1013.9 0.0
03/11:30am 24.9 27.1 20.4 76 2.9 SSW 9 13 5 7 1014.5 1014.4 0.0
03/11:00am 24.8 26.7 20.5 77 2.8 SSE 11 13 6 7 1014.7 1014.6 0.0
03/10:30am 24.7 27.0 20.6 78 2.7 SSE 9 13 5 7 1014.7 1014.6 0.0
03/10:00am 24.3 26.6 20.6 80 2.4 S 9 11 5 6 1014.9 1014.8 0.0
03/09:30am 23.9 26.3 20.8 83 2.0 SSE 9 13 5 7 1014.7 1014.6 0.0
03/09:00am 23.3 25.3 20.8 86 1.6 SSE 11 15 6 8 1014.4 1014.3 0.0
03/08:30am 22.8 25.5 21.4 92 0.9 SSE 9 11 5 6 1014.0 1013.9 0.0
03/08:00am 22.2 24.8 21.2 94 0.7 SSE 9 11 5 6 1013.6 1013.5 0.0
03/07:30am 21.8 24.6 20.8 94 0.6 SSW 7 11 4 6 1013.4 1013.3 0.0
03/07:00am 21.6 23.9 20.6 94 0.6 S 9 11 5 6 1013.2 1013.1 0.0
03/06:30am 21.4 23.9 20.2 93 0.8 WSW 7 9 4 5 1012.9 1012.8 0.0
03/06:00am 21.8 24.9 19.5 87 1.5 W 2 7 1 4 1012.7 1012.6 0.0
03/05:30am 21.8 25.1 19.0 84 1.8 CALM 0 0 0 0 1012.8 1012.7 0.0
03/05:00am 22.1 25.2 18.7 81 2.1 CALM 0 0 0 0 1012.8 1012.7 0.0
03/04:30am 22.5 25.9 19.3 82 2.0 CALM 0 0 0 0 1012.6 1012.5 0.0
03/04:00am 22.1 25.2 18.7 81 2.1 CALM 0 0 0 0 1012.5 1012.4 0.0
03/03:30am 22.3 24.8 18.1 77 2.6 N 2 6 1 3 1012.7 1012.6 0.0
03/03:00am 23.5 25.7 19.2 77 2.7 NNE 6 7 3 4 1012.9 1012.8 0.0
03/02:30am 23.0 25.1 19.0 78 2.5 NNE 6 7 3 4 1013.1 1013.0 0.0
03/02:00am 23.1 25.3 19.5 80 2.3 NE 7 9 4 5 1013.3 1013.2 0.0
03/01:30am 22.9 24.6 19.3 80 2.3 NE 9 11 5 6 1013.6 1013.5 0.0
03/01:00am 23.1 24.4 19.3 79 2.4 NE 11 11 6 6 1013.8 1013.7 0.0
03/12:30am 23.6 24.6 19.5 78 2.6 NE 13 15 7 8 1013.8 1013.7 0.0
03/12:00am 24.0 24.9 20.1 79 2.5 NE 15 20 8 11 1013.8 1013.7 0.0
 
Date/Time
CST
Temp
°C
App
Temp
°C
Dew
Point
°C
Rel
Hum
%
Delta-T
°C
Wind Press
QNH
hPa
Press
MSL
hPa
Rain since
9am
mm
Dir  Spd
km/h
Gust
km/h
Spd
kts
Gust
kts
02/11:30pm 24.0 24.9 20.1 79 2.5 NE 15 20 8 11 1013.8 1013.7 0.0
02/11:00pm 24.0 24.5 20.1 79 2.5 NE 17 20 9 11 1013.7 1013.6 0.0
02/10:30pm 24.1 24.3 20.2 79 2.5 NE 19 24 10 13 1013.5 1013.4 0.0
02/10:00pm 24.3 24.6 20.8 81 2.3 NE 20 24 11 13 1013.4 1013.3 0.0
02/09:30pm 24.4 24.8 20.9 81 2.3 ENE 20 26 11 14 1013.2 1013.1 0.0
02/09:00pm 24.3 23.9 20.2 78 2.7 NE 22 26 12 14 1012.9 1012.8 0.0
02/08:30pm 24.4 24.2 19.7 75 3.0 NE 20 26 11 14 1012.6 1012.5 0.0
02/08:00pm 24.3 23.3 18.9 72 3.4 NE 22 28 12 15 1012.3 1012.2 0.0
02/07:30pm 24.4 23.8 18.8 71 3.6 NE 20 24 11 13 1012.2 1012.1 0.0
02/07:00pm 24.6 24.1 19.2 72 3.5 NE 20 24 11 13 1011.7 1011.6 0.0
02/06:30pm 24.9 23.8 18.6 68 4.0 NE 22 28 12 15 1011.6 1011.5 0.0
02/06:00pm 25.6 24.2 18.8 66 4.3 NE 24 28 13 15 1011.4 1011.3 0.0
02/05:30pm 26.1 25.3 18.5 63 4.8 NE 20 26 11 14 1011.3 1011.2 0.0
02/05:00pm 26.6 25.2 17.9 59 5.5 NE 22 30 12 16 1011.3 1011.2 0.0
02/04:30pm 26.8 25.0 17.8 57 5.7 NE 24 28 13 15 1011.4 1011.3 0.0
02/04:00pm 27.0 25.7 17.2 55 6.1 NE 20 26 11 14 1011.6 1011.5 0.0
02/03:30pm 27.2 25.6 16.5 52 6.6 NE 20 26 11 14 1011.9 1011.8 0.0
02/03:00pm 27.0 25.3 16.3 52 6.6 ENE 20 24 11 13 1012.1 1012.0 0.0
02/02:30pm 27.4 25.1 15.7 48 7.2 ENE 22 26 12 14 1012.4 1012.3 0.0
02/02:00pm 27.4 24.7 15.7 48 7.2 ENE 24 28 13 15 1012.9 1012.8 0.0
02/01:30pm 27.2 25.6 13.9 44 7.9 E 15 19 8 10 1013.4 1013.3 0.0
02/01:00pm 27.1 25.1 12.7 41 8.4 E 15 17 8 9 1013.8 1013.7 0.0
02/12:30pm 27.4 24.4 10.6 35 9.5 ESE 17 22 9 12 1014.3 1014.2 0.0
02/12:00pm 27.2 23.3 9.5 33 9.8 ESE 20 24 11 13 1014.7 1014.6 0.0
02/11:30am 26.5 22.8 9.4 34 9.4 ESE 19 22 10 12 1014.9 1014.8 0.0
02/11:00am 26.8 22.6 9.6 34 9.5 ESE 22 24 12 13 1015.2 1015.1 0.0
02/10:30am 26.0 23.4 12.1 42 8.0 ESE 17 20 9 11 1015.3 1015.2 0.0
02/10:00am 25.5 25.6 16.6 58 5.5 SE 11 15 6 8 1015.2 1015.1 0.0
02/09:30am 24.5 25.2 17.0 63 4.6 SE 9 11 5 6 1015.2 1015.1 0.0
02/09:00am 23.5 24.0 16.5 65 4.3 SE 9 11 5 6 1015.1 1015.0 0.0
02/08:30am 22.6 25.4 20.5 88 1.4 SE 6 7 3 4 1014.9 1014.8 0.0
02/08:00am 21.3 25.0 19.9 92 0.9 CALM 0 0 0 0 1014.8 1014.7 0.0
02/07:30am 21.3 25.1 20.1 93 0.8 CALM 0 0 0 0 1014.5 1014.4 0.0
02/07:00am 21.5 24.6 20.3 93 0.8 SE 4 7 2 4 1014.3 1014.2 0.0
02/06:30am 21.4 24.1 20.2 93 0.8 SE 6 7 3 4 1014.3 1014.2 0.0
02/06:00am 21.5 22.5 20.3 93 0.8 S 15 19 8 10 1013.8 1013.7 0.0
02/05:30am 21.9 22.4 20.9 94 0.7 S 19 22 10 12 1013.7 1013.6 0.0
02/05:00am 22.1 23.6 21.3 95 0.5 SSE 15 17 8 9 1013.7 1013.6 0.0
02/04:30am 22.3 23.8 21.3 94 0.7 SSE 15 17 8 9 1013.5 1013.4 0.0
02/04:00am 22.8 24.7 21.3 91 1.0 SE 13 17 7 9 1013.6 1013.5 0.0
02/03:30am 22.8 24.3 20.5 87 1.5 ESE 13 13 7 7 1013.7 1013.6 0.0
02/03:00am 22.6 24.6 19.9 85 1.7 E 9 11 5 6 1014.0 1013.9 0.0
02/02:30am 23.0 25.5 20.3 85 1.7 ENE 7 9 4 5 1014.3 1014.2 0.0
02/02:00am 23.1 25.3 20.4 85 1.7 NE 9 11 5 6 1014.4 1014.3 0.0
02/01:30am 23.4 24.9 20.5 84 1.9 ENE 13 15 7 8 1014.6 1014.5 0.0
02/01:00am 23.3 24.4 20.4 84 1.9 NE 15 17 8 9 1014.9 1014.8 0.0
02/12:30am 23.5 24.3 20.6 84 1.9 NE 17 20 9 11 1014.8 1014.7 0.0
02/12:00am 23.7 24.5 20.6 83 2.0 NE 17 20 9 11 1014.8 1014.7 0.0
 
Date/Time
CST
Temp
°C
App
Temp
°C
Dew
Point
°C
Rel
Hum
%
Delta-T
°C
Wind Press
QNH
hPa
Press
MSL
hPa
Rain since
9am
mm
Dir  Spd
km/h
Gust
km/h
Spd
kts
Gust
kts
01/11:30pm 23.8 24.1 20.5 82 2.1 NE 19 22 10 12 1014.9 1014.8 0.0
01/11:00pm 24.0 23.9 20.7 82 2.2 NE 22 26 12 14 1014.9 1014.8 0.0
01/10:30pm 24.0 23.4 20.5 81 2.3 NE 24 28 13 15 1015.0 1014.9 0.0

Other formats

Comma delimited format used in spreadsheet applications
http://www.bom.gov.au/fwo/IDD60801/IDD60801.94102.axf

JavaScript Object Notation format (JSON) in row-major order
http://www.bom.gov.au/fwo/IDD60801/IDD60801.94102.json

Data quality

Most of these data are generated automatically and are frequently updated. Quality checks on data are not normally performed. It is possible for incorrect values to appear. Refer to information at About Latest Weather Observations and please check the disclaimer before using these data.